createdAt,value
2022-09-01T00:01:38.985Z,1.67
2022-09-01T00:04:06.262Z,1.20
2022-09-01T00:06:34.145Z,1.60
2022-09-01T00:09:04.846Z,1.20
2022-09-01T00:11:32.114Z,1.10
2022-09-01T00:14:01.520Z,1.30
2022-09-01T00:16:29.724Z,1.10
2022-09-01T00:18:56.554Z,1.30
2022-09-01T00:21:29.537Z,1.10
2022-09-01T00:23:56.828Z,1.27
2022-09-01T00:26:23.776Z,1.20
2022-09-01T00:28:51.176Z,1.27
2022-09-01T00:31:19.908Z,1.30
2022-09-01T00:33:47.684Z,1.20
2022-09-01T00:36:15.196Z,1.10
2022-09-01T00:38:41.775Z,1.30
2022-09-01T00:41:08.417Z,1.17
2022-09-01T00:43:56.151Z,1.30
2022-09-01T00:46:28.900Z,1.30
2022-09-01T00:48:59.716Z,1.23
2022-09-01T00:51:26.893Z,1.10
2022-09-01T00:53:55.757Z,1.30
2022-09-01T00:56:23.174Z,1.27
2022-09-01T00:58:51.718Z,1.13
2022-09-01T01:01:18.204Z,1.30
2022-09-01T01:03:47.184Z,1.30
2022-09-01T01:06:16.696Z,1.10
2022-09-01T01:08:57.916Z,1.03
2022-09-01T01:11:26.682Z,1.30
2022-09-01T01:13:57.572Z,1.00
2022-09-01T01:16:25.685Z,1.10
2022-09-01T01:18:52.455Z,1.30
2022-09-01T01:21:41.018Z,1.00
2022-09-01T01:24:07.555Z,0.93
2022-09-01T01:26:34.032Z,1.10
2022-09-01T01:29:02.229Z,1.20
2022-09-01T01:31:28.657Z,1.33
2022-09-01T01:33:56.755Z,1.30
2022-09-01T01:36:35.798Z,1.00
2022-09-01T01:39:14.668Z,1.03
2022-09-01T01:41:45.229Z,1.20
2022-09-01T01:44:13.716Z,1.30
2022-09-01T01:46:43.595Z,1.00
2022-09-01T01:49:13.241Z,1.07
2022-09-01T01:51:41.113Z,1.40
2022-09-01T01:54:08.061Z,1.40
2022-09-01T01:56:37.979Z,1.33
2022-09-01T01:59:04.393Z,1.40
2022-09-01T02:01:33.606Z,1.13
2022-09-01T02:04:00.955Z,1.20
2022-09-01T02:06:28.412Z,1.30
2022-09-01T02:08:57.975Z,1.50
2022-09-01T02:11:27.996Z,1.10
2022-09-01T02:13:57.126Z,1.27
2022-09-01T02:16:25.941Z,1.20
2022-09-01T02:18:53.930Z,1.23
2022-09-01T02:21:22.577Z,1.40
2022-09-01T02:24:01.055Z,1.43
2022-09-01T02:26:45.804Z,1.50
2022-09-01T02:29:21.045Z,1.50
2022-09-01T02:31:53.198Z,2.07
2022-09-01T02:34:20.946Z,1.53
2022-09-01T02:36:49.748Z,1.10
2022-09-01T02:39:23.177Z,1.33
2022-09-01T02:41:50.437Z,1.60
2022-09-01T02:44:22.871Z,1.33
2022-09-01T02:46:50.373Z,1.70
2022-09-01T02:49:21.112Z,1.50
2022-09-01T02:51:50.693Z,1.37
2022-09-01T02:54:17.562Z,1.60
2022-09-01T02:56:48.142Z,1.60
2022-09-01T02:59:15.723Z,1.50
2022-09-01T03:01:43.707Z,2.37
2022-09-01T03:04:11.601Z,1.50
2022-09-01T03:06:38.923Z,1.33
2022-09-01T03:09:08.773Z,1.30
2022-09-01T03:11:40.328Z,1.40
2022-09-01T03:14:08.273Z,1.93
2022-09-01T03:16:37.230Z,1.50
2022-09-01T03:19:07.317Z,1.63
2022-09-01T03:21:33.832Z,1.67
2022-09-01T03:24:03.179Z,1.50
2022-09-01T03:26:30.660Z,1.87
2022-09-01T03:28:57.463Z,1.57
2022-09-01T03:31:27.505Z,1.60
2022-09-01T03:33:57.566Z,1.93
2022-09-01T03:36:25.586Z,1.83
2022-09-01T03:38:53.113Z,1.77
2022-09-01T03:41:22.909Z,1.77
2022-09-01T03:43:49.821Z,1.90
2022-09-01T03:46:21.407Z,1.70
2022-09-01T03:48:54.957Z,1.80
2022-09-01T03:51:22.807Z,1.80
2022-09-01T03:53:57.616Z,1.93
2022-09-01T03:56:28.417Z,1.60
2022-09-01T03:58:57.158Z,1.50
2022-09-01T04:01:25.823Z,1.67
2022-09-01T04:03:52.944Z,1.80
2022-09-01T04:06:20.640Z,1.90
2022-09-01T04:08:47.248Z,1.90
2022-09-01T04:11:18.598Z,2.00
2022-09-01T04:13:47.198Z,1.90
2022-09-01T04:16:47.336Z,1.90
2022-09-01T04:19:19.866Z,2.00
2022-09-01T04:21:47.241Z,1.97
2022-09-01T04:24:15.355Z,2.07
2022-09-01T04:26:42.489Z,2.07
2022-09-01T04:29:11.608Z,2.00
2022-09-01T04:31:38.797Z,2.03
2022-09-01T04:34:13.093Z,2.00
2022-09-01T04:36:41.987Z,1.97
2022-09-01T04:39:09.466Z,1.90
2022-09-01T04:41:41.389Z,1.90
2022-09-01T04:44:08.687Z,1.50
2022-09-01T04:46:39.520Z,1.70
2022-09-01T04:49:11.999Z,2.20
2022-09-01T04:51:41.638Z,1.87
2022-09-01T04:54:14.122Z,2.50
2022-09-01T04:56:43.083Z,1.90
2022-09-01T04:59:10.836Z,2.00
2022-09-01T05:01:43.478Z,2.00
2022-09-01T05:04:12.676Z,2.47
2022-09-01T05:06:41.821Z,2.33
2022-09-01T05:09:12.981Z,2.00
2022-09-01T05:11:41.291Z,2.00
2022-09-01T05:14:07.745Z,1.90
2022-09-01T05:16:35.776Z,2.10
2022-09-01T05:19:02.369Z,2.00
2022-09-01T05:21:29.796Z,1.70
2022-09-01T05:23:58.709Z,2.03
2022-09-01T05:26:30.717Z,1.80
2022-09-01T05:28:59.847Z,2.00
2022-09-01T05:31:28.522Z,2.83
2022-09-01T05:33:55.566Z,2.10
2022-09-01T05:36:23.496Z,2.20
2022-09-01T05:38:52.149Z,1.90
2022-09-01T05:41:19.485Z,2.10
2022-09-01T05:43:48.986Z,2.30
2022-09-01T05:46:17.173Z,2.10
2022-09-01T05:48:44.892Z,2.00
2022-09-01T05:51:40.219Z,1.80
2022-09-01T05:54:01.972Z,1.83
2022-09-01T05:56:30.519Z,2.07
2022-09-01T06:01:50.205Z,2.30
2022-09-01T06:04:17.458Z,1.80
2022-09-01T06:07:07.127Z,2.17
2022-09-01T06:09:42.769Z,1.63
2022-09-01T06:12:17.519Z,1.80
2022-09-01T06:14:48.593Z,1.70
2022-09-01T06:17:24.905Z,1.60
2022-09-01T06:19:53.306Z,1.83
2022-09-01T06:22:20.694Z,1.90
2022-09-01T06:24:52.725Z,1.67
2022-09-01T06:27:22.219Z,1.70
2022-09-01T06:29:56.412Z,1.60
2022-09-01T06:32:25.809Z,1.80
2022-09-01T06:34:52.485Z,1.60
2022-09-01T06:37:22.879Z,1.90
2022-09-01T06:39:50.762Z,1.50
2022-09-01T06:42:17.893Z,1.40
2022-09-01T06:44:45.935Z,1.63
2022-09-01T06:47:12.525Z,1.67
2022-09-01T06:49:40.806Z,1.50
2022-09-01T06:52:07.506Z,1.60
2022-09-01T06:54:35.394Z,1.90
2022-09-01T06:58:03.272Z,1.60
2022-09-01T06:59:50.722Z,1.83
2022-09-01T07:02:20.010Z,1.60
2022-09-01T07:04:52.146Z,1.50
2022-09-01T07:10:18.511Z,1.60
2022-09-01T07:13:10.653Z,1.50
2022-09-01T07:18:30.783Z,1.40
2022-09-01T07:26:30.776Z,1.50
2022-09-01T07:29:01.470Z,1.40
2022-09-01T07:32:48.103Z,1.40
2022-09-01T07:34:41.472Z,1.00
2022-09-01T07:38:03.542Z,1.10
2022-09-01T07:39:56.255Z,1.40
2022-09-01T07:45:27.076Z,1.27
2022-09-01T07:47:55.613Z,1.20
2022-09-01T07:51:34.148Z,1.37
2022-09-01T07:53:12.478Z,1.30
2022-09-01T07:55:43.821Z,1.10
2022-09-01T07:58:11.815Z,1.00
2022-09-01T08:00:39.998Z,0.80
2022-09-01T08:03:06.472Z,0.90
2022-09-01T08:05:33.566Z,1.00
2022-09-01T08:08:01.083Z,0.90
2022-09-01T08:10:27.610Z,0.90
2022-09-01T08:12:57.322Z,1.00
2022-09-01T08:15:41.154Z,0.90
2022-09-01T08:18:14.354Z,0.83
2022-09-01T08:20:45.494Z,0.80
2022-09-01T08:23:15.907Z,0.83
2022-09-01T08:25:44.051Z,0.80
2022-09-01T08:28:11.910Z,0.70
2022-09-01T08:30:40.785Z,0.90
2022-09-01T08:33:10.975Z,0.77
2022-09-01T08:35:42.187Z,0.70
2022-09-01T08:38:10.516Z,0.90
2022-09-01T08:40:37.595Z,0.70
2022-09-01T08:43:24.989Z,0.87
2022-09-01T08:45:54.930Z,0.80
2022-09-01T08:52:00.525Z,0.80
2022-09-01T08:55:05.563Z,0.70
2022-09-01T08:57:34.982Z,0.90
2022-09-01T09:00:01.662Z,0.60
2022-09-01T09:02:40.135Z,0.60
2022-09-01T09:05:35.016Z,0.50
2022-09-01T09:08:24.872Z,0.67
2022-09-01T09:11:02.842Z,0.70
2022-09-01T09:13:45.585Z,0.60
2022-09-01T09:16:19.304Z,0.87
2022-09-01T09:18:56.399Z,0.60
2022-09-01T09:21:30.108Z,0.70
2022-09-01T09:24:22.705Z,0.70
2022-09-01T09:26:54.869Z,0.80
2022-09-01T09:29:22.265Z,0.70
2022-09-01T09:32:02.336Z,0.83
2022-09-01T09:34:37.640Z,0.80
2022-09-01T09:37:27.352Z,0.50
2022-09-01T09:40:21.685Z,0.73
2022-09-01T09:42:54.267Z,0.70
2022-09-01T09:45:41.963Z,0.50
2022-09-01T09:48:12.032Z,0.80
2022-09-01T09:50:41.151Z,0.60
2022-09-01T09:53:16.195Z,0.53
2022-09-01T09:56:06.601Z,0.60
2022-09-01T09:58:41.517Z,0.70
2022-09-01T10:01:17.714Z,0.60
2022-09-01T10:03:50.845Z,0.50
2022-09-01T10:06:38.169Z,0.60
2022-09-01T10:09:34.855Z,0.43
2022-09-01T10:12:02.132Z,0.70
2022-09-01T10:14:51.956Z,0.60
2022-09-01T10:17:28.875Z,0.60
2022-09-01T10:20:06.976Z,0.50
2022-09-01T10:22:35.671Z,0.80
2022-09-01T10:25:03.328Z,0.60
2022-09-01T10:27:36.057Z,0.70
2022-09-01T10:30:20.262Z,0.50
2022-09-01T10:33:06.771Z,0.53
2022-09-01T10:35:39.771Z,0.53
2022-09-01T10:38:11.980Z,0.60
2022-09-01T10:40:43.740Z,0.50
2022-09-01T10:43:43.806Z,0.70
2022-09-01T10:46:15.922Z,0.40
2022-09-01T10:48:48.586Z,0.60
2022-09-01T10:51:19.311Z,0.53
2022-09-01T10:53:55.330Z,0.53
2022-09-01T10:56:35.378Z,0.80
2022-09-01T11:02:22.923Z,0.40
2022-09-01T11:04:45.220Z,0.70
2022-09-01T11:07:38.979Z,0.43
2022-09-01T11:10:31.628Z,0.50
2022-09-01T11:13:15.020Z,0.50
2022-09-01T11:15:43.044Z,0.50
2022-09-01T11:18:17.644Z,0.50
2022-09-01T11:20:45.948Z,0.40
2022-09-01T11:23:29.394Z,0.60
2022-09-01T11:28:49.478Z,0.70
2022-09-01T11:31:27.167Z,0.53
2022-09-01T11:34:16.812Z,0.77
2022-09-01T11:36:44.780Z,0.43
2022-09-01T11:39:14.331Z,0.60
2022-09-01T11:42:08.065Z,0.50
2022-09-01T11:44:53.286Z,0.57
2022-09-01T11:47:26.631Z,0.40
2022-09-01T11:50:02.191Z,0.40
2022-09-01T11:52:35.889Z,0.40
2022-09-01T11:55:04.922Z,0.70
2022-09-01T11:57:34.250Z,0.60
2022-09-01T12:00:04.490Z,0.60
2022-09-01T12:02:36.634Z,0.53
2022-09-01T12:05:05.150Z,0.70
2022-09-01T12:07:39.594Z,0.40
2022-09-01T12:10:20.056Z,0.60
2022-09-01T12:12:46.647Z,0.73
2022-09-01T12:15:26.312Z,0.73
2022-09-01T12:17:53.822Z,1.10
2022-09-01T12:20:33.018Z,0.87
2022-09-01T12:23:00.673Z,0.70
2022-09-01T12:25:34.464Z,0.90
2022-09-01T12:28:06.014Z,0.70
2022-09-01T12:30:39.593Z,0.80
2022-09-01T12:33:24.490Z,0.70
2022-09-01T12:35:53.215Z,0.40
2022-09-01T12:38:29.343Z,0.77
2022-09-01T12:40:57.805Z,0.60
2022-09-01T12:43:28.671Z,0.73
2022-09-01T12:45:55.154Z,0.60
2022-09-01T12:48:33.829Z,0.73
2022-09-01T12:51:09.392Z,0.70
2022-09-01T12:53:37.208Z,0.70
2022-09-01T12:56:15.160Z,0.60
2022-09-01T12:58:43.575Z,0.50
2022-09-01T13:01:25.072Z,0.57
2022-09-01T13:04:12.806Z,0.77
2022-09-01T13:06:39.388Z,0.70
2022-09-01T13:09:05.886Z,0.50
2022-09-01T13:14:20.958Z,0.63
2022-09-01T13:16:47.443Z,0.60
2022-09-01T13:19:19.800Z,0.60
2022-09-01T13:21:52.893Z,0.70
2022-09-01T13:24:19.330Z,0.83
2022-09-01T13:27:20.190Z,0.80
2022-09-01T13:29:32.841Z,0.60
2022-09-01T13:34:45.731Z,0.60
2022-09-01T13:37:12.375Z,0.60
2022-09-01T13:39:38.831Z,0.80
2022-09-01T13:42:05.450Z,0.80
2022-09-01T13:44:31.906Z,1.10
2022-09-01T13:47:00.527Z,0.70
2022-09-01T13:50:04.694Z,0.80
2022-09-01T13:52:13.693Z,0.90
2022-09-01T13:54:40.292Z,0.80
2022-09-01T13:57:06.745Z,0.83
2022-09-01T13:59:33.256Z,0.90
2022-09-01T14:02:01.511Z,0.80
2022-09-01T14:04:28.161Z,0.73
2022-09-01T14:06:54.992Z,0.60
2022-09-01T14:09:21.798Z,0.67
2022-09-01T14:11:48.276Z,0.60
2022-09-01T14:14:14.748Z,0.77
2022-09-01T14:16:41.215Z,0.50
2022-09-01T14:19:07.867Z,0.70
2022-09-01T14:21:34.290Z,0.67
2022-09-01T14:24:01.253Z,0.57
2022-09-01T14:26:28.122Z,0.63
2022-09-01T14:28:55.044Z,0.87
2022-09-01T14:31:21.784Z,0.50
2022-09-01T14:33:49.139Z,0.53
2022-09-01T14:36:22.320Z,0.80
2022-09-01T14:38:49.527Z,0.60
2022-09-01T14:41:16.868Z,0.50
2022-09-01T14:43:43.350Z,0.60
2022-09-01T14:46:10.852Z,0.60
2022-09-01T14:48:38.578Z,0.60
2022-09-01T14:51:05.606Z,0.60
2022-09-01T14:53:32.765Z,0.60
2022-09-01T14:56:00.573Z,0.70
2022-09-01T14:58:28.535Z,0.80
2022-09-01T15:01:03.508Z,0.60
2022-09-01T15:03:34.598Z,0.50
2022-09-01T15:06:01.051Z,0.67
2022-09-01T15:08:27.551Z,0.50
2022-09-01T15:10:54.338Z,0.60
2022-09-01T15:13:20.944Z,0.60
2022-09-01T15:15:47.439Z,0.80
2022-09-01T15:18:13.996Z,0.60
2022-09-01T15:20:46.396Z,0.67
2022-09-01T15:23:18.643Z,0.70
2022-09-01T15:25:45.179Z,0.83
2022-09-01T15:28:11.733Z,0.60
2022-09-01T15:30:39.817Z,1.20
2022-09-01T15:33:08.376Z,0.60
2022-09-01T15:35:37.250Z,0.50
2022-09-01T15:38:05.002Z,1.03
2022-09-01T15:40:31.992Z,0.50
2022-09-01T15:42:58.639Z,0.43
2022-09-01T15:45:26.473Z,0.60
2022-09-01T15:47:53.139Z,0.70
2022-09-01T15:50:22.303Z,0.60
2022-09-01T15:52:56.154Z,1.20
2022-09-01T15:55:25.857Z,0.40
2022-09-01T15:57:54.215Z,0.63
2022-09-01T16:00:23.197Z,0.60
2022-09-01T16:02:50.767Z,0.70
2022-09-01T16:05:17.830Z,0.60
2022-09-01T16:07:44.712Z,0.57
2022-09-01T16:10:14.107Z,0.60
2022-09-01T16:12:43.857Z,0.60
2022-09-01T16:15:12.994Z,0.60
2022-09-01T16:17:47.270Z,0.60
2022-09-01T16:20:19.846Z,0.73
2022-09-01T16:22:57.464Z,0.90
2022-09-01T16:25:30.511Z,0.70
2022-09-01T16:27:58.627Z,0.80
2022-09-01T16:30:29.113Z,0.80
2022-09-01T16:33:03.742Z,0.50
2022-09-01T16:36:00.054Z,0.60
2022-09-01T16:38:46.848Z,0.70
2022-09-01T16:41:19.231Z,0.87
2022-09-01T16:44:06.240Z,0.70
2022-09-01T16:46:45.501Z,0.67
2022-09-01T16:49:20.896Z,0.53
2022-09-01T16:52:18.903Z,0.80
2022-09-01T16:55:06.873Z,0.77
2022-09-01T16:58:11.693Z,0.87
2022-09-01T17:00:42.203Z,0.63
2022-09-01T17:03:19.638Z,0.60
2022-09-01T17:05:55.938Z,0.87
2022-09-01T17:08:34.252Z,0.70
2022-09-01T17:11:12.075Z,0.67
2022-09-01T17:13:41.765Z,1.13
2022-09-01T17:16:29.552Z,0.80
2022-09-01T17:18:59.196Z,0.60
2022-09-01T17:21:32.243Z,0.60
2022-09-01T17:24:24.112Z,0.60
2022-09-01T17:26:51.911Z,0.50
2022-09-01T17:29:26.902Z,0.70
2022-09-01T17:32:18.084Z,1.20
2022-09-01T17:34:55.911Z,1.10
2022-09-01T17:37:40.946Z,0.80
2022-09-01T17:40:16.358Z,0.90
2022-09-01T17:42:43.988Z,0.90
2022-09-01T17:45:29.085Z,0.80
2022-09-01T17:48:10.385Z,0.73
2022-09-01T17:50:52.045Z,0.70
2022-09-01T17:53:43.876Z,1.00
2022-09-01T17:56:21.159Z,0.80
2022-09-01T17:58:59.371Z,0.97
2022-09-01T18:01:39.474Z,0.90
2022-09-01T18:04:32.295Z,0.90
2022-09-01T18:06:59.000Z,0.90
2022-09-01T18:09:26.983Z,0.80
2022-09-01T18:11:58.510Z,1.00
2022-09-01T18:14:33.274Z,1.20
2022-09-01T18:17:10.866Z,0.97
2022-09-01T18:19:39.788Z,1.23
2022-09-01T18:22:09.600Z,1.10
2022-09-01T18:24:55.780Z,0.93
2022-09-01T18:27:24.274Z,1.20
2022-09-01T18:29:52.096Z,1.20
2022-09-01T18:32:37.780Z,1.00
2022-09-01T18:35:27.281Z,1.10
2022-09-01T18:38:18.495Z,1.20
2022-09-01T18:40:56.230Z,0.80
2022-09-01T18:43:37.472Z,0.80
2022-09-01T18:46:18.692Z,0.90
2022-09-01T18:48:52.876Z,1.10
2022-09-01T18:51:32.869Z,0.93
2022-09-01T18:54:05.241Z,0.90
2022-09-01T18:56:44.472Z,1.30
2022-09-01T18:59:37.196Z,1.23
2022-09-01T19:02:28.405Z,0.80
2022-09-01T19:05:03.783Z,0.90
2022-09-01T19:07:45.742Z,0.90
2022-09-01T19:10:39.638Z,1.00
2022-09-01T19:13:13.826Z,0.97
2022-09-01T19:15:57.304Z,0.97
2022-09-01T19:18:32.579Z,1.03
2022-09-01T19:21:14.794Z,0.93
2022-09-01T19:23:46.561Z,1.17
2022-09-01T19:26:21.202Z,1.07
2022-09-01T19:28:51.027Z,1.10
2022-09-01T19:31:30.757Z,0.73
2022-09-01T19:34:15.180Z,0.97
2022-09-01T19:36:45.643Z,0.87
2022-09-01T19:39:15.530Z,1.17
2022-09-01T19:42:00.200Z,0.80
2022-09-01T19:44:45.313Z,1.20
2022-09-01T19:47:19.587Z,1.07
2022-09-01T19:50:09.121Z,1.00
2022-09-01T19:52:40.836Z,0.90
2022-09-01T19:55:14.590Z,0.93
2022-09-01T19:57:56.560Z,0.90
2022-09-01T20:00:26.713Z,0.80
2022-09-01T20:03:02.451Z,0.90
2022-09-01T20:05:32.392Z,0.90
2022-09-01T20:08:23.794Z,0.80
2022-09-01T20:11:04.270Z,1.53
2022-09-01T20:13:43.860Z,0.93
2022-09-01T20:16:14.114Z,1.20
2022-09-01T20:18:46.933Z,1.10
2022-09-01T20:21:20.821Z,0.87
2022-09-01T20:24:05.889Z,1.10
2022-09-01T20:26:44.988Z,1.10
2022-09-01T20:29:18.734Z,1.00
2022-09-01T20:31:51.269Z,1.10
2022-09-01T20:34:29.019Z,0.90
2022-09-01T20:37:34.366Z,0.90
2022-09-01T20:40:27.193Z,1.10
2022-09-01T20:43:08.425Z,0.90
2022-09-01T20:45:35.166Z,0.90
2022-09-01T20:48:14.409Z,0.80
2022-09-01T20:50:52.227Z,0.80
2022-09-01T20:53:26.603Z,1.00
2022-09-01T20:55:57.501Z,0.80
2022-09-01T20:58:31.031Z,0.80
2022-09-01T21:01:17.644Z,1.17
2022-09-01T21:04:03.393Z,0.83
2022-09-01T21:06:54.439Z,0.90
2022-09-01T21:10:00.573Z,0.70
2022-09-01T21:12:51.191Z,0.90
2022-09-01T21:15:38.725Z,0.90
2022-09-01T21:18:43.969Z,0.73
2022-09-01T21:21:27.471Z,0.80
2022-09-01T21:23:53.905Z,0.90
2022-09-01T21:26:20.561Z,1.53
2022-09-01T21:28:52.008Z,0.90
2022-09-01T21:31:20.207Z,0.90
2022-09-01T21:33:46.870Z,0.80
2022-09-01T21:36:13.358Z,0.80
2022-09-01T21:38:39.891Z,0.97
2022-09-01T21:41:10.837Z,0.70
2022-09-01T21:43:44.169Z,1.03
2022-09-01T21:46:13.544Z,0.90
2022-09-01T21:48:40.176Z,1.00
2022-09-01T21:51:06.752Z,1.00
2022-09-01T21:53:33.379Z,0.80
2022-09-01T21:55:59.977Z,0.83
2022-09-01T21:58:26.455Z,0.97
2022-09-01T22:00:52.910Z,0.80
2022-09-01T22:03:19.415Z,0.87
2022-09-01T22:05:46.193Z,0.90
2022-09-01T22:08:14.218Z,0.90
2022-09-01T22:10:46.198Z,0.90
2022-09-01T22:13:13.354Z,0.93
2022-09-01T22:15:47.387Z,1.10
2022-09-01T22:18:14.339Z,0.90
2022-09-01T22:20:41.684Z,1.00
2022-09-01T22:23:08.552Z,0.90
2022-09-01T22:25:36.351Z,0.83
2022-09-01T22:28:05.272Z,0.77
2022-09-01T22:30:32.418Z,0.90
2022-09-01T22:32:59.750Z,0.70
2022-09-01T22:35:26.241Z,0.93
2022-09-01T22:37:52.682Z,0.80
2022-09-01T22:40:19.271Z,0.90
2022-09-01T22:42:45.817Z,0.90
2022-09-01T22:45:13.335Z,1.00
2022-09-01T22:47:39.984Z,1.17
2022-09-01T22:50:08.971Z,0.97
2022-09-01T22:52:36.325Z,0.90
2022-09-01T22:55:04.204Z,0.90
2022-09-01T22:57:31.021Z,0.87
2022-09-01T22:59:57.513Z,0.97
2022-09-01T23:02:23.995Z,0.80
2022-09-01T23:04:50.492Z,0.80
2022-09-01T23:07:16.955Z,0.90
2022-09-01T23:09:43.403Z,0.90
2022-09-01T23:12:09.872Z,0.80
2022-09-01T23:14:36.411Z,0.80
2022-09-01T23:17:02.904Z,1.00
2022-09-01T23:19:29.367Z,0.83
2022-09-01T23:21:55.858Z,1.27
2022-09-01T23:24:22.359Z,0.73
2022-09-01T23:26:49.056Z,0.90
2022-09-01T23:29:15.579Z,0.90
2022-09-01T23:31:43.580Z,0.93
2022-09-01T23:34:10.257Z,1.00
2022-09-01T23:36:37.092Z,0.83
2022-09-01T23:39:04.727Z,0.90
2022-09-01T23:41:33.498Z,1.10
2022-09-01T23:44:02.858Z,1.50
2022-09-01T23:46:35.177Z,0.90
2022-09-01T23:49:02.175Z,1.03
2022-09-01T23:51:28.893Z,0.70
2022-09-01T23:53:55.499Z,1.10
2022-09-01T23:56:24.818Z,1.10
2022-09-01T23:58:51.840Z,0.80
